Terminal Aerodrome Forecast
Issued by NWS

Home | Current Version | Previous Version | Text Only | Print | Product List | Glossary On
Versions: 1 2 3 4 5 6 7 8 9 10 11 12 13 14 15 16 17 18 19 20 21 22 23 24 25 26 27 28 29 30 31 32 33 34 35 36 37 38 39 40 41 42 43 44 45 46 47 48 49 50
000
FTUS45 KBOU 162326
TAFBJC
TAF
KBJC 162326Z 1700/1724 34011KT 1SM -SNRA BR OVC004
      TEMPO 1700/1702 1/2SM SN FG VV002
     FM170200 34011KT 3SM -SNRA BR OVC004
     FM170500 36011KT 1SM -SN BR OVC002
     FM171200 02012KT 4SM -RASN BR SCT004 OVC008
     FM172100 01010KT P6SM -SHRA SCT008 OVC015=

USA.gov is the U.S. government's official web portal to all federal, state and local government web resources and services.